Moby Aki — IBVV — position and weather

sailwx.info

Track history (hours):
 
Tides and Currents Weather Stations Pressure Air Temp Water Temp Dewpoint Dewpoint Depression Visibility Wind Speed Wind Dir Waves Ship Positions

Moby Aki

Last reported at 2017-Jun-24 00:23 UTC. Time now 2017-Jun-24 01:43 UTC.
Position N 42°22' E 009°52'.

Length 175 m; draft 6.9 m.

Type: Ship. MMSI: 247132400.

Date/timePositionNaut miles runAvg speedWind from/ knotsBaromVisibWave heightAir tempDewpointWater temp
2017-Jun-24 00:23N 42°22' E 009°52'1122.5
2017-Jun-23 23:54N 42°11' E 009°50'922.5
2017-Jun-23 23:30N 42°02' E 009°49'1122.4
2017-Jun-23 23:00N 41°51' E 009°48'5022.3
2017-Jun-23 20:46N 41°02' E 009°42'43 8.4
2017-Jun-23 15:36N 41°44' E 009°57'426.5
2017-Jun-23 15:27N 41°48' E 009°58'1226.7
2017-Jun-23 15:01N 41°59' E 010°02'2926.4
2017-Jun-23 13:55N 42°27' E 010°14'1126.5
2017-Jun-23 13:30N 42°35' E 010°23'1326.2
2017-Jun-23 13:01N 42°47' E 010°32'10 6.5
2017-Jun-23 11:33N 42°56' E 010°34'519.8
2017-Jun-23 11:16N 42°51' E 010°32'726.4
2017-Jun-23 11:00N 42°44' E 010°30'1426.6
2017-Jun-23 10:29N 42°32' E 010°21'1326.5
2017-Jun-23 10:01N 42°22' E 010°11'1326.6
2017-Jun-23 09:31N 42°09' E 010°06'1326.6
2017-Jun-23 09:00N 41°56' E 010°01'1526.6
2017-Jun-23 08:27N 41°42' E 009°56'1226.6
2017-Jun-23 08:00N 41°30' E 009°52'1326.3
2017-Jun-23 07:30N 41°17' E 009°47'1626.3
2017-Jun-23 06:53N 41°02' E 009°42'15 4.1
2017-Jun-23 03:07N 41°17' E 009°44'425.2
2017-Jun-23 02:57N 41°21' E 009°44'1124.9
2017-Jun-23 02:31N 41°32' E 009°46'1424.5
2017-Jun-23 01:57N 41°45' E 009°49'1124.5
2017-Jun-23 01:30N 41°56' E 009°51'1224.5
2017-Jun-23 01:01N 42°08' E 009°54'1724.6
2017-Jun-23 00:19N 42°25' E 009°57'824.4
2017-Jun-23 00:00N 42°33' E 009°58'1224.5
2017-Jun-22 23:31N 42°45' E 010°00'1224.5
2017-Jun-22 23:00N 42°57' E 010°03'1224.4
2017-Jun-22 22:31N 43°09' E 010°07'1224.5
2017-Jun-22 22:01N 43°21' E 010°10'1122.7
2017-Jun-22 21:30N 43°32' E 010°15'3 5.6
2017-Jun-22 21:00N 43°33' E 010°18'0 0.0
2017-Jun-22 20:30N 43°33' E 010°18'0 0.0
2017-Jun-22 20:00N 43°33' E 010°18'0 0.0
2017-Jun-22 19:30N 43°33' E 010°18'0 0.1
2017-Jun-22 19:00N 43°33' E 010°18'510.7
2017-Jun-22 18:31N 43°29' E 010°13'1326.1
2017-Jun-22 18:01N 43°16' E 010°09'1326.3
2017-Jun-22 17:30N 43°03' E 010°06'1326.4
2017-Jun-22 17:01N 42°50' E 010°03'1526.6
2017-Jun-22 16:28N 42°36' E 009°58'1226.6
2017-Jun-22 16:00N 42°24' E 009°56'1326.6
2017-Jun-22 15:30N 42°11' E 009°56'1326.6
2017-Jun-22 15:00N 41°58' E 009°54'3526.5
2017-Jun-22 13:41N 41°23' E 009°47'426.4
2017-Jun-22 13:30N 41°18' E 009°46'1326.5
2017-Jun-22 13:00N 41°05' E 009°44'1220.1
2017-Jun-22 12:23N 40°55' E 009°33'4 0.5
2017-Jun-22 04:08N 40°57' E 009°38'320.8
2017-Jun-22 04:00N 40°58' E 009°41'1223.6
2017-Jun-22 03:30N 41°10' E 009°45'7423.9
2017-Jun-22 00:26N 42°23' E 009°50'1023.9
2017-Jun-22 00:00N 42°33' E 009°55'1223.7
2017-Jun-21 23:31N 42°44' E 009°60'1223.7
2017-Jun-21 23:00N 42°56' E 010°03'1224.0
2017-Jun-21 22:31N 43°07' E 010°06'1223.9
2017-Jun-21 22:01N 43°19' E 010°09'1223.7
2017-Jun-21 21:31N 43°31' E 010°13'4 8.4
2017-Jun-21 21:00N 43°33' E 010°18'0 0.0
2017-Jun-21 20:30N 43°33' E 010°18'0 0.0
2017-Jun-21 20:00N 43°33' E 010°18'0 0.0
2017-Jun-21 19:24N 43°33' E 010°18'0 0.4
2017-Jun-21 19:01N 43°33' E 010°18'510.8
2017-Jun-21 18:31N 43°29' E 010°13'1326.1
2017-Jun-21 18:01N 43°16' E 010°10'1326.3
2017-Jun-21 17:30N 43°03' E 010°07'1326.2
2017-Jun-21 17:00N 42°50' E 010°03'1326.4
2017-Jun-21 16:31N 42°37' E 009°59'1326.4
2017-Jun-21 16:00N 42°24' E 009°56'1326.3
2017-Jun-21 15:31N 42°11' E 009°54'4626.5
2017-Jun-21 13:47N 41°26' E 009°46'726.4
2017-Jun-21 13:30N 41°18' E 009°45'1326.5
2017-Jun-21 13:00N 41°05' E 009°43'1221.4
2017-Jun-21 12:27N 40°55' E 009°35'0 0.0
2017-Jun-21 04:55N 40°56' E 009°35'714.5
2017-Jun-21 04:27N 41°00' E 009°41'1022.1
2017-Jun-21 04:00N 41°10' E 009°44'2321.6
2017-Jun-21 02:55N 41°33' E 009°46'5021.9
2017-Jun-21 00:40N 42°23' E 009°51'321.9
2017-Jun-21 00:30N 42°26' E 009°52'1121.5
2017-Jun-21 00:00N 42°36' E 009°57'1521.8
2017-Jun-20 23:18N 42°51' E 010°02'621.9
2017-Jun-20 23:00N 42°57' E 010°04'1122.0
2017-Jun-20 22:30N 43°08' E 010°07'1121.8
2017-Jun-20 22:00N 43°19' E 010°10'1121.9
2017-Jun-20 21:30N 43°30' E 010°12'5 9.9
2017-Jun-20 20:58N 43°33' E 010°18'0 0.0
2017-Jun-20 20:30N 43°33' E 010°18'0 0.0
2017-Jun-20 20:01N 43°33' E 010°18'0 0.0
2017-Jun-20 19:31N 43°33' E 010°18'0 0.5
2017-Jun-20 19:00N 43°33' E 010°18'611.5
2017-Jun-20 18:30N 43°28' E 010°13'1326.2
2017-Jun-20 18:01N 43°16' E 010°09'1326.5
2017-Jun-20 17:31N 43°03' E 010°05'1326.4
2017-Jun-20 17:01N 42°50' E 010°02'2126.4
2017-Jun-20 16:13N 42°29' E 009°57'526.3
2017-Jun-20 16:01N 42°24' E 009°56'1626.4
2017-Jun-20 15:24N 42°08' E 009°54'1026.6
2017-Jun-20 15:00N 41°57' E 009°52'2126.6
2017-Jun-20 14:13N 41°37' E 009°47'1926.5
2017-Jun-20 13:30N 41°18' E 009°45'1326.7
2017-Jun-20 13:01N 41°05' E 009°42'9 1.1
2017-Jun-20 04:43N 40°56' E 009°38'417.5
2017-Jun-20 04:31N 40°59' E 009°41'5922.4
2017-Jun-20 01:52N 41°58' E 009°52'4922.2
2017-Jun-19 23:41N 42°46' E 010°00'422.5
2017-Jun-19 23:30N 42°50' E 010°01'1122.5
2017-Jun-19 23:00N 43°01' E 010°04'1122.5
2017-Jun-19 22:30N 43°12' E 010°07'1122.6
2017-Jun-19 22:00N 43°23' E 010°11'1019.8
2017-Jun-19 21:30N 43°32' E 010°16'2 3.8
2017-Jun-19 20:56N 43°33' E 010°18'0 0.0
2017-Jun-19 20:29N 43°33' E 010°18'0 0.0
2017-Jun-19 19:59N 43°33' E 010°18'0 0.0
2017-Jun-19 19:29N 43°33' E 010°18'0 0.9
2017-Jun-19 19:00N 43°33' E 010°18'5 9.1
2017-Jun-19 18:31N 43°29' E 010°13'1326.4
2017-Jun-19 18:01N 43°16' E 010°10'1326.4
2017-Jun-19 17:31N 43°04' E 010°06'1326.2
2017-Jun-19 17:00N 42°51' E 010°02'1426.4
2017-Jun-19 16:28N 42°37' E 009°59'1226.5
2017-Jun-19 16:00N 42°25' E 009°56'1326.5
2017-Jun-19 15:30N 42°11' E 009°54'1326.5
2017-Jun-19 15:00N 41°58' E 009°53'4726.5
2017-Jun-19 13:13N 41°11' E 009°44'96 7.4
2017-Jun-19 00:10N 42°47' E 010°00'421.9
2017-Jun-19 00:00N 42°51' E 010°01'1122.0
2017-Jun-18 23:31N 43°01' E 010°04'1223.2
2017-Jun-18 23:01N 43°13' E 010°07'1122.8
2017-Jun-18 22:30N 43°24' E 010°11'918.5
2017-Jun-18 22:00N 43°32' E 010°16'2 3.1
2017-Jun-18 21:27N 43°33' E 010°18'0 0.0
2017-Jun-18 21:00N 43°33' E 010°18'0 0.0
2017-Jun-18 20:30N 43°33' E 010°18'5 8.5
2017-Jun-18 19:57N 43°30' E 010°13'1125.8
2017-Jun-18 19:31N 43°18' E 010°11'1326.6
2017-Jun-18 19:01N 43°05' E 010°07'1326.6
2017-Jun-18 18:31N 42°52' E 010°03'1526.5
2017-Jun-18 17:56N 42°38' E 009°59'1226.7
2017-Jun-18 17:30N 42°26' E 009°57'22 2.3
2017-Jun-18 08:04N 42°48' E 010°02'227.0
2017-Jun-18 07:59N 42°50' E 010°02'1326.5
2017-Jun-18 07:31N 43°03' E 010°05'1326.6
2017-Jun-18 07:01N 43°16' E 010°09'1326.6
2017-Jun-18 06:31N 43°29' E 010°11'712.3
2017-Jun-18 05:58N 43°33' E 010°18'0 0.0
2017-Jun-18 05:28N 43°33' E 010°18'0 0.0
2017-Jun-18 04:58N 43°33' E 010°18'0 0.0
2017-Jun-18 04:28N 43°33' E 010°18'0 0.7
2017-Jun-18 04:01N 43°33' E 010°18'612.3
2017-Jun-18 03:31N 43°28' E 010°13'1224.0
2017-Jun-18 03:01N 43°16' E 010°09'1224.0
2017-Jun-18 02:31N 43°05' E 010°04'1223.8
2017-Jun-18 02:01N 42°53' E 009°60'1223.8
2017-Jun-18 01:30N 42°42' E 009°56'1223.9
2017-Jun-18 01:01N 42°30' E 009°53'9613.5
2017-Jun-17 17:55N 40°55' E 009°32'712.6
2017-Jun-17 17:24N 40°58' E 009°40'1025.8
2017-Jun-17 17:00N 41°07' E 009°44'2826.6
2017-Jun-17 15:56N 41°35' E 009°53'1126.5
2017-Jun-17 15:30N 41°46' E 009°57'2126.5
2017-Jun-17 14:43N 42°06' E 010°05'526.6
2017-Jun-17 14:30N 42°11' E 010°07'2626.4
2017-Jun-17 13:30N 42°35' E 010°23'1326.3
2017-Jun-17 13:01N 42°46' E 010°32'1018.7
2017-Jun-17 12:30N 42°56' E 010°33'0 0.0
2017-Jun-17 11:58N 42°56' E 010°33'3 5.5
2017-Jun-17 11:23N 42°53' E 010°34'1026.0
2017-Jun-17 11:00N 42°43' E 010°30'2526.7
2017-Jun-17 10:04N 42°22' E 010°12'126.6
2017-Jun-17 10:00N 42°21' E 010°11'1326.6
2017-Jun-17 09:31N 42°08' E 010°06'1326.7
2017-Jun-17 09:00N 41°55' E 010°01'1326.5
2017-Jun-17 08:30N 41°42' E 009°56'1426.4
2017-Jun-17 07:58N 41°29' E 009°51'2526.4
2017-Jun-17 07:02N 41°05' E 009°43'126.5
2017-Jun-17 07:01N 41°04' E 009°43'1120.0
2017-Jun-17 06:26N 40°55' E 009°33'9417.4
2017-Jun-17 01:00N 42°28' E 009°56'1326.6
2017-Jun-17 00:30N 42°41' E 009°58'1326.5
2017-Jun-17 00:01N 42°54' E 010°02'1326.6
2017-Jun-16 23:31N 43°07' E 010°05'1326.5
2017-Jun-16 23:01N 43°20' E 010°09'1224.0
2017-Jun-16 22:30N 43°31' E 010°15'3 4.4
2017-Jun-16 21:52N 43°33' E 010°18'0 0.0
2017-Jun-16 21:28N 43°33' E 010°18'0 0.0
2017-Jun-16 20:58N 43°33' E 010°18'0 0.0
2017-Jun-16 20:30N 43°33' E 010°18'5 9.8
2017-Jun-16 20:00N 43°30' E 010°13'1326.2
2017-Jun-16 19:30N 43°17' E 010°10'1326.6
2017-Jun-16 19:00N 43°04' E 010°06'1326.5
2017-Jun-16 18:30N 42°51' E 010°03'1326.5
2017-Jun-16 18:00N 42°38' E 009°59'2326.4
2017-Jun-16 17:09N 42°15' E 009°55'426.5
2017-Jun-16 17:01N 42°12' E 009°55'1326.5
2017-Jun-16 16:30N 41°58' E 009°53'4026.6
2017-Jun-16 15:01N 41°19' E 009°46'025.5
2017-Jun-16 15:00N 41°19' E 009°46'2523.6
2017-Jun-16 13:57N 40°55' E 009°34'6 3.1
2017-Jun-16 12:03N 40°59' E 009°41'126.2
2017-Jun-16 12:00N 41°00' E 009°41'1326.5
2017-Jun-16 11:30N 41°13' E 009°43'4326.5
2017-Jun-16 09:52N 41°56' E 009°50'1026.5
2017-Jun-16 09:30N 42°06' E 009°52'1326.5
2017-Jun-16 09:00N 42°19' E 009°54'1326.6
2017-Jun-16 08:30N 42°32' E 009°57'1326.5
2017-Jun-16 08:00N 42°45' E 010°02'1326.8
2017-Jun-16 07:30N 42°58' E 010°05'1326.6
2017-Jun-16 07:00N 43°11' E 010°08'1326.7
2017-Jun-16 06:30N 43°24' E 010°11'918.7
2017-Jun-16 06:00N 43°32' E 010°17'1 1.7
2017-Jun-16 05:30N 43°33' E 010°18'0 0.0
2017-Jun-16 05:00N 43°33' E 010°18'0 0.0
2017-Jun-16 04:30N 43°33' E 010°18'0 0.5
2017-Jun-16 04:00N 43°33' E 010°18'611.2
2017-Jun-16 03:30N 43°28' E 010°13'1223.3
2017-Jun-16 03:00N 43°17' E 010°10'1223.8
2017-Jun-16 02:31N 43°05' E 010°07'1223.7
2017-Jun-16 02:00N 42°54' E 010°03'1223.6
2017-Jun-16 01:30N 42°42' E 009°59'1223.6
2017-Jun-16 00:59N 42°30' E 009°54'1123.5
2017-Jun-16 00:30N 42°20' E 009°51'1223.7
2017-Jun-15 23:59N 42°07' E 009°49'1223.8
2017-Jun-15 23:29N 41°56' E 009°47'1124.0
2017-Jun-15 23:01N 41°44' E 009°46'1224.0
2017-Jun-15 22:30N 41°32' E 009°46'1223.7
2017-Jun-15 22:00N 41°20' E 009°45'1223.4
2017-Jun-15 21:31N 41°09' E 009°44'1223.0
2017-Jun-15 21:00N 40°57' E 009°40'7 2.5
2017-Jun-15 18:11N 40°55' E 009°31'0 1.2
2017-Jun-15 18:00N 40°55' E 009°32'611.1
2017-Jun-15 17:28N 40°57' E 009°39'1125.1
2017-Jun-15 17:00N 41°08' E 009°45'1326.6
2017-Jun-15 16:30N 41°21' E 009°49'1426.6
2017-Jun-15 16:00N 41°34' E 009°53'1426.5
2017-Jun-15 15:28N 41°47' E 009°58'1226.4
2017-Jun-15 15:00N 41°59' E 010°03'2726.4
2017-Jun-15 13:58N 42°25' E 010°14'1226.2
2017-Jun-15 13:30N 42°35' E 010°23'1326.2
2017-Jun-15 13:00N 42°46' E 010°32'918.7
2017-Jun-15 12:30N 42°56' E 010°33'0 0.0
2017-Jun-15 12:00N 42°56' E 010°33'1 1.3
2017-Jun-15 11:31N 42°56' E 010°34'1122.0
2017-Jun-15 11:00N 42°45' E 010°31'1326.1
2017-Jun-15 10:30N 42°34' E 010°22'1427.1
2017-Jun-15 10:01N 42°23' E 010°12'1326.4
2017-Jun-15 09:30N 42°10' E 010°06'1427.0
2017-Jun-15 09:00N 41°57' E 010°01'1326.3
2017-Jun-15 08:31N 41°44' E 009°57'1326.4
2017-Jun-15 08:01N 41°31' E 009°53'1426.7
2017-Jun-15 07:28N 41°18' E 009°48'1226.3
2017-Jun-15 07:01N 41°06' E 009°43'1222.6
2017-Jun-15 06:27N 40°55' E 009°34'2 2.6
2017-Jun-15 05:37N 40°55' E 009°31'0 0.0
2017-Jun-15 05:24N 40°55' E 009°31'0 0.0
2017-Jun-15 04:51N 40°55' E 009°31'0 0.1
2017-Jun-15 04:24N 40°55' E 009°32'3 7.4
2017-Jun-15 03:59N 40°56' E 009°36'714.7
2017-Jun-15 03:30N 41°01' E 009°42'1426.4
2017-Jun-15 02:59N 41°15' E 009°44'1225.5
2017-Jun-15 02:30N 41°27' E 009°45'1224.9
2017-Jun-15 02:00N 41°40' E 009°47'1324.4
2017-Jun-15 01:28N 41°52' E 009°48'1324.4
2017-Jun-15 00:56N 42°05' E 009°49'1024.7
2017-Jun-15 00:31N 42°16' E 009°50'1324.8
2017-Jun-15 00:00N 42°28' E 009°56'1224.7
2017-Jun-14 23:30N 42°40' E 009°59'1224.7
2017-Jun-14 23:00N 42°52' E 010°03'1224.8
2017-Jun-14 22:30N 43°04' E 010°06'1224.7
2017-Jun-14 22:01N 43°16' E 010°09'1224.5
2017-Jun-14 21:31N 43°28' E 010°12'712.2
2017-Jun-14 20:58N 43°33' E 010°18'0 0.0
2017-Jun-14 20:28N 43°33' E 010°18'0 0.0
2017-Jun-14 19:58N 43°33' E 010°18'0 0.0
2017-Jun-14 19:28N 43°33' E 010°18'2 3.5
2017-Jun-14 19:00N 43°32' E 010°16'918.1
2017-Jun-14 18:30N 43°24' E 010°12'1325.5
2017-Jun-14 18:01N 43°11' E 010°09'1325.4
2017-Jun-14 17:31N 42°59' E 010°05'1325.5
2017-Jun-14 17:01N 42°46' E 010°02'1325.6
2017-Jun-14 16:30N 42°34' E 009°57'1325.3
2017-Jun-14 16:00N 42°21' E 009°55'1325.6
2017-Jun-14 15:30N 42°08' E 009°54'1325.4
2017-Jun-14 15:01N 41°56' E 009°52'2625.4
2017-Jun-14 13:59N 41°30' E 009°48'1225.3
2017-Jun-14 13:30N 41°18' E 009°46'1325.4
2017-Jun-14 13:01N 41°05' E 009°43'1221.7
2017-Jun-14 12:27N 40°55' E 009°34'2 0.3
2017-Jun-14 05:13N 40°55' E 009°32'2 8.2
2017-Jun-14 04:59N 40°55' E 009°34'714.6
2017-Jun-14 04:30N 40°60' E 009°41'1020.3
2017-Jun-14 04:00N 41°10' E 009°43'1121.3
2017-Jun-14 03:30N 41°20' E 009°44'1122.1
2017-Jun-14 03:00N 41°31' E 009°46'1121.9
2017-Jun-14 02:30N 41°42' E 009°48'1121.8
2017-Jun-14 02:00N 41°53' E 009°51'1121.8
2017-Jun-14 01:30N 42°04' E 009°53'1121.9
2017-Jun-14 01:00N 42°15' E 009°54'1122.3
2017-Jun-14 00:30N 42°26' E 009°56'  
Track history (hours):
 
Tides and Currents Weather Stations Pressure Air Temp Water Temp Dewpoint Dewpoint Depression Visibility Wind Speed Wind Dir Waves Ship Positions

Moby Aki

Last reported at 2017-Jun-24 00:23 UTC. Time now 2017-Jun-24 01:43 UTC.
Position N 42°22' E 009°52'.

Length 175 m; draft 6.9 m.

Type: Ship. MMSI: 247132400.

Date/timePositionNaut miles runAvg speedWind from/ knotsBaromVisibWave heightAir tempDewpointWater temp
2017-Jun-24 00:23N 42°22' E 009°52'1122.5
2017-Jun-23 23:54N 42°11' E 009°50'922.5
2017-Jun-23 23:30N 42°02' E 009°49'1122.4
2017-Jun-23 23:00N 41°51' E 009°48'5022.3
2017-Jun-23 20:46N 41°02' E 009°42'43 8.4
2017-Jun-23 15:36N 41°44' E 009°57'426.5
2017-Jun-23 15:27N 41°48' E 009°58'1226.7
2017-Jun-23 15:01N 41°59' E 010°02'2926.4
2017-Jun-23 13:55N 42°27' E 010°14'1126.5
2017-Jun-23 13:30N 42°35' E 010°23'1326.2
2017-Jun-23 13:01N 42°47' E 010°32'10 6.5
2017-Jun-23 11:33N 42°56' E 010°34'519.8
2017-Jun-23 11:16N 42°51' E 010°32'726.4
2017-Jun-23 11:00N 42°44' E 010°30'1426.6
2017-Jun-23 10:29N 42°32' E 010°21'1326.5
2017-Jun-23 10:01N 42°22' E 010°11'1326.6
2017-Jun-23 09:31N 42°09' E 010°06'1326.6
2017-Jun-23 09:00N 41°56' E 010°01'1526.6
2017-Jun-23 08:27N 41°42' E 009°56'1226.6
2017-Jun-23 08:00N 41°30' E 009°52'1326.3
2017-Jun-23 07:30N 41°17' E 009°47'1626.3
2017-Jun-23 06:53N 41°02' E 009°42'15 4.1
2017-Jun-23 03:07N 41°17' E 009°44'425.2
2017-Jun-23 02:57N 41°21' E 009°44'1124.9
2017-Jun-23 02:31N 41°32' E 009°46'1424.5
2017-Jun-23 01:57N 41°45' E 009°49'1124.5
2017-Jun-23 01:30N 41°56' E 009°51'1224.5
2017-Jun-23 01:01N 42°08' E 009°54'1724.6
2017-Jun-23 00:19N 42°25' E 009°57'824.4
2017-Jun-23 00:00N 42°33' E 009°58'1224.5
2017-Jun-22 23:31N 42°45' E 010°00'1224.5
2017-Jun-22 23:00N 42°57' E 010°03'1224.4
2017-Jun-22 22:31N 43°09' E 010°07'1224.5
2017-Jun-22 22:01N 43°21' E 010°10'1122.7
2017-Jun-22 21:30N 43°32' E 010°15'3 5.6
2017-Jun-22 21:00N 43°33' E 010°18'0 0.0
2017-Jun-22 20:30N 43°33' E 010°18'0 0.0
2017-Jun-22 20:00N 43°33' E 010°18'0 0.0
2017-Jun-22 19:30N 43°33' E 010°18'0 0.1
2017-Jun-22 19:00N 43°33' E 010°18'510.7
2017-Jun-22 18:31N 43°29' E 010°13'1326.1
2017-Jun-22 18:01N 43°16' E 010°09'1326.3
2017-Jun-22 17:30N 43°03' E 010°06'1326.4
2017-Jun-22 17:01N 42°50' E 010°03'1526.6
2017-Jun-22 16:28N 42°36' E 009°58'1226.6
2017-Jun-22 16:00N 42°24' E 009°56'1326.6
2017-Jun-22 15:30N 42°11' E 009°56'1326.6
2017-Jun-22 15:00N 41°58' E 009°54'3526.5
2017-Jun-22 13:41N 41°23' E 009°47'426.4
2017-Jun-22 13:30N 41°18' E 009°46'1326.5
2017-Jun-22 13:00N 41°05' E 009°44'1220.1
2017-Jun-22 12:23N 40°55' E 009°33'4 0.5
2017-Jun-22 04:08N 40°57' E 009°38'320.8
2017-Jun-22 04:00N 40°58' E 009°41'1223.6
2017-Jun-22 03:30N 41°10' E 009°45'7423.9
2017-Jun-22 00:26N 42°23' E 009°50'1023.9
2017-Jun-22 00:00N 42°33' E 009°55'1223.7
2017-Jun-21 23:31N 42°44' E 009°60'1223.7
2017-Jun-21 23:00N 42°56' E 010°03'1224.0
2017-Jun-21 22:31N 43°07' E 010°06'1223.9
2017-Jun-21 22:01N 43°19' E 010°09'1223.7
2017-Jun-21 21:31N 43°31' E 010°13'4 8.4
2017-Jun-21 21:00N 43°33' E 010°18'0 0.0
2017-Jun-21 20:30N 43°33' E 010°18'0 0.0
2017-Jun-21 20:00N 43°33' E 010°18'0 0.0
2017-Jun-21 19:24N 43°33' E 010°18'0 0.4
2017-Jun-21 19:01N 43°33' E 010°18'510.8
2017-Jun-21 18:31N 43°29' E 010°13'1326.1
2017-Jun-21 18:01N 43°16' E 010°10'1326.3
2017-Jun-21 17:30N 43°03' E 010°07'1326.2
2017-Jun-21 17:00N 42°50' E 010°03'1326.4
2017-Jun-21 16:31N 42°37' E 009°59'1326.4
2017-Jun-21 16:00N 42°24' E 009°56'1326.3
2017-Jun-21 15:31N 42°11' E 009°54'4626.5
2017-Jun-21 13:47N 41°26' E 009°46'726.4
2017-Jun-21 13:30N 41°18' E 009°45'1326.5
2017-Jun-21 13:00N 41°05' E 009°43'1221.4
2017-Jun-21 12:27N 40°55' E 009°35'0 0.0
2017-Jun-21 04:55N 40°56' E 009°35'714.5
2017-Jun-21 04:27N 41°00' E 009°41'1022.1
2017-Jun-21 04:00N 41°10' E 009°44'2321.6
2017-Jun-21 02:55N 41°33' E 009°46'5021.9
2017-Jun-21 00:40N 42°23' E 009°51'321.9
2017-Jun-21 00:30N 42°26' E 009°52'1121.5
2017-Jun-21 00:00N 42°36' E 009°57'1521.8
2017-Jun-20 23:18N 42°51' E 010°02'621.9
2017-Jun-20 23:00N 42°57' E 010°04'1122.0
2017-Jun-20 22:30N 43°08' E 010°07'1121.8
2017-Jun-20 22:00N 43°19' E 010°10'1121.9
2017-Jun-20 21:30N 43°30' E 010°12'5 9.9
2017-Jun-20 20:58N 43°33' E 010°18'0 0.0
2017-Jun-20 20:30N 43°33' E 010°18'0 0.0
2017-Jun-20 20:01N 43°33' E 010°18'0 0.0
2017-Jun-20 19:31N 43°33' E 010°18'0 0.5
2017-Jun-20 19:00N 43°33' E 010°18'611.5
2017-Jun-20 18:30N 43°28' E 010°13'1326.2
2017-Jun-20 18:01N 43°16' E 010°09'1326.5
2017-Jun-20 17:31N 43°03' E 010°05'1326.4
2017-Jun-20 17:01N 42°50' E 010°02'2126.4
2017-Jun-20 16:13N 42°29' E 009°57'526.3
2017-Jun-20 16:01N 42°24' E 009°56'1626.4
2017-Jun-20 15:24N 42°08' E 009°54'1026.6
2017-Jun-20 15:00N 41°57' E 009°52'2126.6
2017-Jun-20 14:13N 41°37' E 009°47'1926.5
2017-Jun-20 13:30N 41°18' E 009°45'1326.7
2017-Jun-20 13:01N 41°05' E 009°42'9 1.1
2017-Jun-20 04:43N 40°56' E 009°38'417.5
2017-Jun-20 04:31N 40°59' E 009°41'5922.4
2017-Jun-20 01:52N 41°58' E 009°52'4922.2
2017-Jun-19 23:41N 42°46' E 010°00'422.5
2017-Jun-19 23:30N 42°50' E 010°01'1122.5
2017-Jun-19 23:00N 43°01' E 010°04'1122.5
2017-Jun-19 22:30N 43°12' E 010°07'1122.6
2017-Jun-19 22:00N 43°23' E 010°11'1019.8
2017-Jun-19 21:30N 43°32' E 010°16'2 3.8
2017-Jun-19 20:56N 43°33' E 010°18'0 0.0
2017-Jun-19 20:29N 43°33' E 010°18'0 0.0
2017-Jun-19 19:59N 43°33' E 010°18'0 0.0
2017-Jun-19 19:29N 43°33' E 010°18'0 0.9
2017-Jun-19 19:00N 43°33' E 010°18'5 9.1
2017-Jun-19 18:31N 43°29' E 010°13'1326.4
2017-Jun-19 18:01N 43°16' E 010°10'1326.4
2017-Jun-19 17:31N 43°04' E 010°06'1326.2
2017-Jun-19 17:00N 42°51' E 010°02'1426.4
2017-Jun-19 16:28N 42°37' E 009°59'1226.5
2017-Jun-19 16:00N 42°25' E 009°56'1326.5
2017-Jun-19 15:30N 42°11' E 009°54'1326.5
2017-Jun-19 15:00N 41°58' E 009°53'4726.5
2017-Jun-19 13:13N 41°11' E 009°44'96 7.4
2017-Jun-19 00:10N 42°47' E 010°00'421.9
2017-Jun-19 00:00N 42°51' E 010°01'1122.0
2017-Jun-18 23:31N 43°01' E 010°04'1223.2
2017-Jun-18 23:01N 43°13' E 010°07'1122.8
2017-Jun-18 22:30N 43°24' E 010°11'918.5
2017-Jun-18 22:00N 43°32' E 010°16'2 3.1
2017-Jun-18 21:27N 43°33' E 010°18'0 0.0
2017-Jun-18 21:00N 43°33' E 010°18'0 0.0
2017-Jun-18 20:30N 43°33' E 010°18'5 8.5
2017-Jun-18 19:57N 43°30' E 010°13'1125.8
2017-Jun-18 19:31N 43°18' E 010°11'1326.6
2017-Jun-18 19:01N 43°05' E 010°07'1326.6
2017-Jun-18 18:31N 42°52' E 010°03'1526.5
2017-Jun-18 17:56N 42°38' E 009°59'1226.7
2017-Jun-18 17:30N 42°26' E 009°57'22 2.3
2017-Jun-18 08:04N 42°48' E 010°02'227.0
2017-Jun-18 07:59N 42°50' E 010°02'1326.5
2017-Jun-18 07:31N 43°03' E 010°05'1326.6
2017-Jun-18 07:01N 43°16' E 010°09'1326.6
2017-Jun-18 06:31N 43°29' E 010°11'712.3
2017-Jun-18 05:58N 43°33' E 010°18'0 0.0
2017-Jun-18 05:28N 43°33' E 010°18'0 0.0
2017-Jun-18 04:58N 43°33' E 010°18'0 0.0
2017-Jun-18 04:28N 43°33' E 010°18'0 0.7
2017-Jun-18 04:01N 43°33' E 010°18'612.3
2017-Jun-18 03:31N 43°28' E 010°13'1224.0
2017-Jun-18 03:01N 43°16' E 010°09'1224.0
2017-Jun-18 02:31N 43°05' E 010°04'1223.8
2017-Jun-18 02:01N 42°53' E 009°60'1223.8
2017-Jun-18 01:30N 42°42' E 009°56'1223.9
2017-Jun-18 01:01N 42°30' E 009°53'9613.5
2017-Jun-17 17:55N 40°55' E 009°32'712.6
2017-Jun-17 17:24N 40°58' E 009°40'1025.8
2017-Jun-17 17:00N 41°07' E 009°44'2826.6
2017-Jun-17 15:56N 41°35' E 009°53'1126.5
2017-Jun-17 15:30N 41°46' E 009°57'2126.5
2017-Jun-17 14:43N 42°06' E 010°05'526.6
2017-Jun-17 14:30N 42°11' E 010°07'2626.4
2017-Jun-17 13:30N 42°35' E 010°23'1326.3
2017-Jun-17 13:01N 42°46' E 010°32'1018.7
2017-Jun-17 12:30N 42°56' E 010°33'0 0.0
2017-Jun-17 11:58N 42°56' E 010°33'3 5.5
2017-Jun-17 11:23N 42°53' E 010°34'1026.0
2017-Jun-17 11:00N 42°43' E 010°30'2526.7
2017-Jun-17 10:04N 42°22' E 010°12'126.6
2017-Jun-17 10:00N 42°21' E 010°11'1326.6
2017-Jun-17 09:31N 42°08' E 010°06'1326.7
2017-Jun-17 09:00N 41°55' E 010°01'1326.5
2017-Jun-17 08:30N 41°42' E 009°56'1426.4
2017-Jun-17 07:58N 41°29' E 009°51'2526.4
2017-Jun-17 07:02N 41°05' E 009°43'126.5
2017-Jun-17 07:01N 41°04' E 009°43'1120.0
2017-Jun-17 06:26N 40°55' E 009°33'9417.4
2017-Jun-17 01:00N 42°28' E 009°56'1326.6
2017-Jun-17 00:30N 42°41' E 009°58'1326.5
2017-Jun-17 00:01N 42°54' E 010°02'1326.6
2017-Jun-16 23:31N 43°07' E 010°05'1326.5
2017-Jun-16 23:01N 43°20' E 010°09'1224.0
2017-Jun-16 22:30N 43°31' E 010°15'3 4.4
2017-Jun-16 21:52N 43°33' E 010°18'0 0.0
2017-Jun-16 21:28N 43°33' E 010°18'0 0.0
2017-Jun-16 20:58N 43°33' E 010°18'0 0.0
2017-Jun-16 20:30N 43°33' E 010°18'5 9.8
2017-Jun-16 20:00N 43°30' E 010°13'1326.2
2017-Jun-16 19:30N 43°17' E 010°10'1326.6
2017-Jun-16 19:00N 43°04' E 010°06'1326.5
2017-Jun-16 18:30N 42°51' E 010°03'1326.5
2017-Jun-16 18:00N 42°38' E 009°59'2326.4
2017-Jun-16 17:09N 42°15' E 009°55'426.5
2017-Jun-16 17:01N 42°12' E 009°55'1326.5
2017-Jun-16 16:30N 41°58' E 009°53'4026.6
2017-Jun-16 15:01N 41°19' E 009°46'025.5
2017-Jun-16 15:00N 41°19' E 009°46'2523.6
2017-Jun-16 13:57N 40°55' E 009°34'6 3.1
2017-Jun-16 12:03N 40°59' E 009°41'126.2
2017-Jun-16 12:00N 41°00' E 009°41'1326.5
2017-Jun-16 11:30N 41°13' E 009°43'4326.5
2017-Jun-16 09:52N 41°56' E 009°50'1026.5
2017-Jun-16 09:30N 42°06' E 009°52'1326.5
2017-Jun-16 09:00N 42°19' E 009°54'1326.6
2017-Jun-16 08:30N 42°32' E 009°57'1326.5
2017-Jun-16 08:00N 42°45' E 010°02'1326.8
2017-Jun-16 07:30N 42°58' E 010°05'1326.6
2017-Jun-16 07:00N 43°11' E 010°08'1326.7
2017-Jun-16 06:30N 43°24' E 010°11'918.7
2017-Jun-16 06:00N 43°32' E 010°17'1 1.7
2017-Jun-16 05:30N 43°33' E 010°18'0 0.0
2017-Jun-16 05:00N 43°33' E 010°18'0 0.0
2017-Jun-16 04:30N 43°33' E 010°18'0 0.5
2017-Jun-16 04:00N 43°33' E 010°18'611.2
2017-Jun-16 03:30N 43°28' E 010°13'1223.3
2017-Jun-16 03:00N 43°17' E 010°10'1223.8
2017-Jun-16 02:31N 43°05' E 010°07'1223.7
2017-Jun-16 02:00N 42°54' E 010°03'1223.6
2017-Jun-16 01:30N 42°42' E 009°59'1223.6
2017-Jun-16 00:59N 42°30' E 009°54'1123.5
2017-Jun-16 00:30N 42°20' E 009°51'1223.7
2017-Jun-15 23:59N 42°07' E 009°49'1223.8
2017-Jun-15 23:29N 41°56' E 009°47'1124.0
2017-Jun-15 23:01N 41°44' E 009°46'1224.0
2017-Jun-15 22:30N 41°32' E 009°46'1223.7
2017-Jun-15 22:00N 41°20' E 009°45'1223.4
2017-Jun-15 21:31N 41°09' E 009°44'1223.0
2017-Jun-15 21:00N 40°57' E 009°40'7 2.5
2017-Jun-15 18:11N 40°55' E 009°31'0 1.2
2017-Jun-15 18:00N 40°55' E 009°32'611.1
2017-Jun-15 17:28N 40°57' E 009°39'1125.1
2017-Jun-15 17:00N 41°08' E 009°45'1326.6
2017-Jun-15 16:30N 41°21' E 009°49'1426.6
2017-Jun-15 16:00N 41°34' E 009°53'1426.5
2017-Jun-15 15:28N 41°47' E 009°58'1226.4
2017-Jun-15 15:00N 41°59' E 010°03'2726.4
2017-Jun-15 13:58N 42°25' E 010°14'1226.2
2017-Jun-15 13:30N 42°35' E 010°23'1326.2
2017-Jun-15 13:00N 42°46' E 010°32'918.7
2017-Jun-15 12:30N 42°56' E 010°33'0 0.0
2017-Jun-15 12:00N 42°56' E 010°33'1 1.3
2017-Jun-15 11:31N 42°56' E 010°34'1122.0
2017-Jun-15 11:00N 42°45' E 010°31'1326.1
2017-Jun-15 10:30N 42°34' E 010°22'1427.1
2017-Jun-15 10:01N 42°23' E 010°12'1326.4
2017-Jun-15 09:30N 42°10' E 010°06'1427.0
2017-Jun-15 09:00N 41°57' E 010°01'1326.3
2017-Jun-15 08:31N 41°44' E 009°57'1326.4
2017-Jun-15 08:01N 41°31' E 009°53'1426.7
2017-Jun-15 07:28N 41°18' E 009°48'1226.3
2017-Jun-15 07:01N 41°06' E 009°43'1222.6
2017-Jun-15 06:27N 40°55' E 009°34'2 2.6
2017-Jun-15 05:37N 40°55' E 009°31'0 0.0
2017-Jun-15 05:24N 40°55' E 009°31'0 0.0
2017-Jun-15 04:51N 40°55' E 009°31'0 0.1
2017-Jun-15 04:24N 40°55' E 009°32'3 7.4
2017-Jun-15 03:59N 40°56' E 009°36'714.7
2017-Jun-15 03:30N 41°01' E 009°42'1426.4
2017-Jun-15 02:59N 41°15' E 009°44'1225.5
2017-Jun-15 02:30N 41°27' E 009°45'1224.9
2017-Jun-15 02:00N 41°40' E 009°47'1324.4
2017-Jun-15 01:28N 41°52' E 009°48'1324.4
2017-Jun-15 00:56N 42°05' E 009°49'1024.7
2017-Jun-15 00:31N 42°16' E 009°50'1324.8
2017-Jun-15 00:00N 42°28' E 009°56'1224.7
2017-Jun-14 23:30N 42°40' E 009°59'1224.7
2017-Jun-14 23:00N 42°52' E 010°03'1224.8
2017-Jun-14 22:30N 43°04' E 010°06'1224.7
2017-Jun-14 22:01N 43°16' E 010°09'1224.5
2017-Jun-14 21:31N 43°28' E 010°12'712.2
2017-Jun-14 20:58N 43°33' E 010°18'0 0.0
2017-Jun-14 20:28N 43°33' E 010°18'0 0.0
2017-Jun-14 19:58N 43°33' E 010°18'0 0.0
2017-Jun-14 19:28N 43°33' E 010°18'2 3.5
2017-Jun-14 19:00N 43°32' E 010°16'918.1
2017-Jun-14 18:30N 43°24' E 010°12'1325.5
2017-Jun-14 18:01N 43°11' E 010°09'1325.4
2017-Jun-14 17:31N 42°59' E 010°05'1325.5
2017-Jun-14 17:01N 42°46' E 010°02'1325.6
2017-Jun-14 16:30N 42°34' E 009°57'1325.3
2017-Jun-14 16:00N 42°21' E 009°55'1325.6
2017-Jun-14 15:30N 42°08' E 009°54'1325.4
2017-Jun-14 15:01N 41°56' E 009°52'2625.4
2017-Jun-14 13:59N 41°30' E 009°48'1225.3
2017-Jun-14 13:30N 41°18' E 009°46'1325.4
2017-Jun-14 13:01N 41°05' E 009°43'1221.7
2017-Jun-14 12:27N 40°55' E 009°34'2 0.3
2017-Jun-14 05:13N 40°55' E 009°32'2 8.2
2017-Jun-14 04:59N 40°55' E 009°34'714.6
2017-Jun-14 04:30N 40°60' E 009°41'1020.3
2017-Jun-14 04:00N 41°10' E 009°43'1121.3
2017-Jun-14 03:30N 41°20' E 009°44'1122.1
2017-Jun-14 03:00N 41°31' E 009°46'1121.9
2017-Jun-14 02:30N 41°42' E 009°48'1121.8
2017-Jun-14 02:00N 41°53' E 009°51'1121.8
2017-Jun-14 01:30N 42°04' E 009°53'1121.9
2017-Jun-14 01:00N 42°15' E 009°54'1122.3
2017-Jun-14 00:30N 42°26' E 009°56'  

Dump ship's entire track history